Time;durP1;ratioP1;P1;durP2;ratioP2;P2;SDS_P1;SDS_P2;PMS_P1;PMS_P2;Temp;Humidity;BMP_temperature;BMP_pressure;BME280_temperature;BME280_humidity;BME280_pressure;Samples;Min_cycle;Max_cycle;Signal;HPM_P1;HPM_P2
2023/09/10 00:01:09;;;;;;;17.50;13.68;;;23.50;83.60;;;;;;4943427;28;20769;-74
2023/09/10 00:03:35;;;;;;;15.20;12.95;;;23.40;83.70;;;;;;4937102;28;20028;-73
2023/09/10 00:06:02;;;;;;;15.60;13.88;;;23.40;83.80;;;;;;4941586;28;20062;-74
2023/09/10 00:08:28;;;;;;;14.60;13.00;;;23.40;83.80;;;;;;4937076;28;20038;-74
2023/09/10 00:10:55;;;;;;;18.50;12.52;;;23.40;83.80;;;;;;4942121;28;20053;-73
2023/09/10 00:13:21;;;;;;;15.10;12.75;;;23.40;83.90;;;;;;4939698;28;20059;-73
2023/09/10 00:15:47;;;;;;;14.73;11.77;;;23.40;84.00;;;;;;4942528;28;20465;-73
2023/09/10 00:18:15;;;;;;;16.08;11.85;;;23.30;83.90;;;;;;4953011;28;20023;-74
2023/09/10 00:20:40;;;;;;;14.60;11.73;;;23.20;84.00;;;;;;4963272;28;20038;-73
2023/09/10 00:23:06;;;;;;;13.38;11.35;;;23.20;84.10;;;;;;5016657;28;20037;-73
2023/09/10 00:25:32;;;;;;;14.52;12.43;;;23.20;84.20;;;;;;5043534;28;20112;-74
2023/09/10 00:27:58;;;;;;;13.63;12.13;;;23.10;84.10;;;;;;4977601;28;20051;-73
2023/09/10 00:30:24;;;;;;;15.82;11.95;;;23.10;84.10;;;;;;4941836;28;20035;-73
2023/09/10 00:32:49;;;;;;;16.58;11.98;;;23.10;84.10;;;;;;4939507;28;20074;-74
2023/09/10 00:35:15;;;;;;;13.85;11.60;;;23.10;84.20;;;;;;4941105;28;20039;-73
2023/09/10 00:37:41;;;;;;;15.18;11.55;;;23.10;84.20;;;;;;4943482;28;20689;-74
2023/09/10 00:40:07;;;;;;;15.55;12.02;;;23.00;84.30;;;;;;4938830;28;20077;-73
2023/09/10 00:42:33;;;;;;;13.98;12.18;;;23.00;84.30;;;;;;4952087;28;20035;-73
2023/09/10 00:44:59;;;;;;;14.55;12.07;;;23.00;84.30;;;;;;4961027;28;20031;-73
2023/09/10 00:47:25;;;;;;;14.95;12.32;;;23.00;84.30;;;;;;4964970;28;20052;-72
2023/09/10 00:49:52;;;;;;;15.05;12.18;;;23.00;84.40;;;;;;4939976;28;20059;-72
2023/09/10 00:52:18;;;;;;;14.35;11.18;;;22.90;84.40;;;;;;4942647;28;20059;-72
2023/09/10 00:54:44;;;;;;;16.35;12.52;;;22.80;84.50;;;;;;4944416;28;20027;-72
2023/09/10 00:57:10;;;;;;;14.55;11.70;;;22.90;84.60;;;;;;4941172;28;20039;-72
2023/09/10 00:59:36;;;;;;;17.30;12.45;;;22.80;84.70;;;;;;4937130;28;20673;-73
2023/09/10 01:02:02;;;;;;;14.13;12.68;;;22.80;84.70;;;;;;4941476;28;20036;-72
2023/09/10 01:04:28;;;;;;;16.50;13.30;;;22.80;84.70;;;;;;4934555;28;20038;-73
2023/09/10 01:06:54;;;;;;;15.20;12.55;;;22.80;84.70;;;;;;4946700;28;20047;-72
2023/09/10 01:09:20;;;;;;;16.75;13.23;;;22.80;84.60;;;;;;4997549;28;20023;-71
2023/09/10 01:11:57;;;;;;;15.25;12.60;;;22.70;84.70;;;;;;4953178;28;20023;-73
2023/09/10 01:14:26;;;;;;;15.98;14.30;;;22.70;84.60;;;;;;4941072;28;20130;-72
2023/09/10 01:17:02;;;;;;;18.48;14.25;;;22.70;84.70;;;;;;4952923;28;20612;-72
2023/09/10 01:19:53;;;;;;;18.15;14.60;;;22.70;84.80;;;;;;4939075;28;20481;-72
2023/09/10 01:22:31;;;;;;;15.45;13.32;;;22.60;84.80;;;;;;4939735;28;20035;-72
2023/09/10 01:24:57;;;;;;;15.73;13.85;;;22.60;84.90;;;;;;4942949;28;20520;-73
2023/09/10 01:27:23;;;;;;;16.98;13.70;;;22.60;85.10;;;;;;4942880;28;20058;-73
2023/09/10 01:29:49;;;;;;;16.55;14.27;;;22.60;85.20;;;;;;4942218;28;20429;-72
2023/09/10 01:32:21;;;;;;;15.13;13.52;;;22.60;85.30;;;;;;4942935;28;20062;-72
2023/09/10 01:35:09;;;;;;;15.13;13.52;;;22.60;85.40;;;;;;4943706;28;20027;-71
2023/09/10 01:37:47;;;;;;;17.58;14.30;;;22.60;85.40;;;;;;4935610;28;20035;-73
2023/09/10 01:40:18;;;;;;;17.25;14.23;;;22.50;85.40;;;;;;4941784;28;20027;-73
2023/09/10 01:42:48;;;;;;;15.75;14.02;;;22.50;85.40;;;;;;4940327;28;20035;-72
2023/09/10 01:45:14;;;;;;;17.42;14.23;;;22.50;85.50;;;;;;4941146;28;20024;-72
2023/09/10 01:47:40;;;;;;;17.15;13.32;;;22.50;85.50;;;;;;4940015;28;20039;-73
2023/09/10 01:50:07;;;;;;;18.05;14.60;;;22.40;85.60;;;;;;4942528;28;20050;-73
2023/09/10 01:52:33;;;;;;;16.75;13.95;;;22.40;85.80;;;;;;4934883;28;20054;-72
2023/09/10 01:54:58;;;;;;;16.63;13.48;;;22.30;85.90;;;;;;4938703;28;20462;-73
2023/09/10 01:57:24;;;;;;;17.30;14.40;;;22.40;86.00;;;;;;4937702;28;20611;-72
2023/09/10 01:59:50;;;;;;;16.80;14.40;;;22.30;86.10;;;;;;4941414;28;20027;-71
2023/09/10 02:02:16;;;;;;;20.50;14.82;;;22.30;86.00;;;;;;4939737;28;20440;-72
2023/09/10 02:04:42;;;;;;;16.65;13.60;;;22.30;86.10;;;;;;4942492;28;20023;-72
2023/09/10 02:07:07;;;;;;;16.25;14.55;;;22.20;86.20;;;;;;4939741;28;20043;-72
2023/09/10 02:09:33;;;;;;;16.67;13.80;;;22.20;86.40;;;;;;4938425;28;20031;-72
2023/09/10 02:11:59;;;;;;;15.02;13.05;;;22.20;86.40;;;;;;4941212;28;20035;-72
2023/09/10 02:14:24;;;;;;;17.67;13.38;;;22.20;86.40;;;;;;4940982;28;20038;-73
2023/09/10 02:16:50;;;;;;;16.00;13.27;;;22.20;86.30;;;;;;4939100;28;20035;-72
2023/09/10 02:19:16;;;;;;;14.63;13.05;;;22.20;86.30;;;;;;4935244;28;20484;-73
2023/09/10 02:21:42;;;;;;;16.65;13.57;;;22.10;86.30;;;;;;4936869;28;20027;-74
2023/09/10 02:24:08;;;;;;;16.10;12.65;;;22.10;86.20;;;;;;4939122;28;20039;-74
2023/09/10 02:26:33;;;;;;;15.23;13.50;;;22.10;86.20;;;;;;4940332;28;20031;-74
2023/09/10 02:28:59;;;;;;;16.88;12.73;;;22.10;86.20;;;;;;4938987;28;20052;-72
2023/09/10 02:31:25;;;;;;;18.13;12.88;;;22.10;86.20;;;;;;4938617;28;20035;-72
2023/09/10 02:33:51;;;;;;;17.33;13.90;;;22.10;86.20;;;;;;4938391;28;20039;-72
2023/09/10 02:36:16;;;;;;;16.80;14.32;;;22.10;86.20;;;;;;4941102;28;20286;-73
2023/09/10 02:38:42;;;;;;;16.73;14.02;;;22.10;86.10;;;;;;4937937;28;20482;-73
2023/09/10 02:41:08;;;;;;;17.75;13.65;;;22.10;86.00;;;;;;4938647;28;20062;-73
2023/09/10 02:43:33;;;;;;;16.05;13.68;;;22.10;86.00;;;;;;4940756;28;20043;-73
2023/09/10 02:45:59;;;;;;;15.07;12.90;;;22.10;86.10;;;;;;4936896;28;20028;-74
2023/09/10 02:48:25;;;;;;;15.15;13.55;;;22.00;86.20;;;;;;4936462;28;20043;-73
2023/09/10 02:50:50;;;;;;;14.98;13.23;;;22.00;86.30;;;;;;4935889;28;20035;-72
2023/09/10 02:53:16;;;;;;;18.30;12.93;;;21.90;86.30;;;;;;4940871;28;20067;-73
2023/09/10 02:55:42;;;;;;;16.17;13.43;;;21.90;86.30;;;;;;4941400;28;20127;-72
2023/09/10 02:58:07;;;;;;;14.77;13.20;;;21.90;86.30;;;;;;4940831;28;20134;-73
2023/09/10 03:00:33;;;;;;;17.55;14.00;;;21.90;86.40;;;;;;4937247;28;20020;-73
2023/09/10 03:02:59;;;;;;;16.42;13.85;;;21.80;86.40;;;;;;4932119;28;20035;-73
2023/09/10 03:05:24;;;;;;;15.82;13.35;;;21.80;86.40;;;;;;4941294;28;21962;-74
2023/09/10 03:07:51;;;;;;;15.55;13.88;;;21.70;86.40;;;;;;4939706;28;20050;-72
2023/09/10 03:10:17;;;;;;;17.35;14.23;;;21.70;86.50;;;;;;4934756;28;20031;-73
2023/09/10 03:12:43;;;;;;;15.93;13.90;;;21.80;86.50;;;;;;4935917;28;20496;-73
2023/09/10 03:15:09;;;;;;;15.20;13.60;;;21.70;86.60;;;;;;4938270;28;20453;-72
2023/09/10 03:17:34;;;;;;;16.33;14.63;;;21.70;86.60;;;;;;4940248;28;20062;-76
2023/09/10 03:20:00;;;;;;;17.65;13.82;;;21.70;86.50;;;;;;4938921;28;20551;-73
2023/09/10 03:22:26;;;;;;;15.65;13.55;;;21.70;86.40;;;;;;4940988;28;20469;-73
2023/09/10 03:24:51;;;;;;;18.63;14.10;;;21.70;86.40;;;;;;4937639;28;20042;-73
2023/09/10 03:27:17;;;;;;;20.42;15.55;;;21.80;86.50;;;;;;4939714;28;20040;-72
2023/09/10 03:29:45;;;;;;;17.10;12.85;;;21.70;86.50;;;;;;4942292;28;20031;-73
2023/09/10 03:32:11;;;;;;;17.13;15.35;;;21.80;86.60;;;;;;4947068;28;20027;-73
2023/09/10 03:34:38;;;;;;;18.55;15.52;;;21.80;86.60;;;;;;4935259;28;20126;-73
2023/09/10 03:37:05;;;;;;;16.13;14.40;;;21.80;86.60;;;;;;4941780;28;20442;-74
2023/09/10 03:39:32;;;;;;;17.10;14.80;;;21.80;86.70;;;;;;4945426;28;20105;-71
2023/09/10 03:41:58;;;;;;;17.50;15.60;;;21.80;86.60;;;;;;4959639;28;20040;-73
2023/09/10 03:44:24;;;;;;;18.50;15.65;;;21.80;86.60;;;;;;4944426;28;20044;-74
2023/09/10 03:46:49;;;;;;;21.13;16.75;;;21.80;86.60;;;;;;4947706;28;20062;-74
2023/09/10 03:49:15;;;;;;;19.10;15.90;;;21.70;86.70;;;;;;4938982;28;20059;-73
2023/09/10 03:51:40;;;;;;;16.95;15.25;;;21.70;86.80;;;;;;4954767;28;20113;-74
2023/09/10 03:54:11;;;;;;;18.20;14.70;;;21.70;86.70;;;;;;4953205;28;20497;-73
2023/09/10 03:56:38;;;;;;;16.88;14.77;;;21.70;86.70;;;;;;4939090;28;20035;-73
2023/09/10 03:59:08;;;;;;;16.73;14.68;;;21.70;86.50;;;;;;4942879;28;20100;-74
2023/09/10 04:01:35;;;;;;;19.27;15.10;;;21.70;86.50;;;;;;4941220;28;20206;-72
2023/09/10 04:04:01;;;;;;;17.15;14.02;;;21.60;86.40;;;;;;4953283;28;20066;-72
2023/09/10 04:06:27;;;;;;;16.90;14.73;;;21.60;86.60;;;;;;4944047;28;20027;-73
2023/09/10 04:08:52;;;;;;;16.77;13.85;;;21.60;86.80;;;;;;4943723;28;20058;-73
2023/09/10 04:11:18;;;;;;;17.17;14.30;;;21.60;86.90;;;;;;4944001;28;20058;-73
2023/09/10 04:13:44;;;;;;;16.85;14.23;;;21.60;86.90;;;;;;4940563;28;20059;-73
2023/09/10 04:16:09;;;;;;;15.68;14.02;;;21.60;86.90;;;;;;4962164;28;20038;-74
2023/09/10 04:18:35;;;;;;;15.45;13.85;;;21.60;86.90;;;;;;4971144;28;20404;-74
2023/09/10 04:21:04;;;;;;;15.82;13.45;;;21.50;86.90;;;;;;4942984;28;20085;-73
2023/09/10 04:23:30;;;;;;;15.60;13.25;;;21.50;86.90;;;;;;4950277;28;20136;-74
2023/09/10 04:25:56;;;;;;;15.20;13.70;;;21.50;87.00;;;;;;4969802;28;20114;-74
2023/09/10 04:28:22;;;;;;;19.02;14.45;;;21.40;87.00;;;;;;4935226;28;20833;-72
2023/09/10 04:30:47;;;;;;;16.45;14.50;;;21.40;87.10;;;;;;4941951;28;20027;-72
2023/09/10 04:33:16;;;;;;;15.38;13.75;;;21.50;87.00;;;;;;4950300;28;20033;-74
2023/09/10 04:35:49;;;;;;;16.95;15.15;;;21.40;87.00;;;;;;4943025;28;20695;-73
2023/09/10 04:38:14;;;;;;;18.35;15.73;;;21.50;87.00;;;;;;4956623;28;20105;-72
2023/09/10 04:40:41;;;;;;;17.08;14.23;;;21.40;87.00;;;;;;4937271;28;20529;-74
2023/09/10 04:43:07;;;;;;;15.75;14.20;;;21.40;87.00;;;;;;4938883;28;20031;-74
2023/09/10 04:45:33;;;;;;;17.90;14.68;;;21.40;86.80;;;;;;4964529;28;20038;-73
2023/09/10 04:47:59;;;;;;;17.15;13.70;;;21.30;86.70;;;;;;4943832;28;20036;-71
2023/09/10 04:50:25;;;;;;;15.82;14.07;;;21.30;86.90;;;;;;4941466;28;20027;-72
2023/09/10 04:52:52;;;;;;;16.85;14.13;;;21.30;86.90;;;;;;4943095;28;20034;-74
2023/09/10 04:55:18;;;;;;;16.52;14.45;;;21.20;87.00;;;;;;4938519;28;20482;-73
2023/09/10 04:57:44;;;;;;;16.08;14.10;;;21.20;87.10;;;;;;4942507;28;20054;-72
2023/09/10 05:00:10;;;;;;;17.15;14.45;;;21.20;87.20;;;;;;4937252;28;20063;-75
2023/09/10 05:02:35;;;;;;;17.35;15.55;;;21.20;87.20;;;;;;4943403;28;20035;-74
2023/09/10 05:05:01;;;;;;;17.60;15.75;;;21.10;87.10;;;;;;4936960;28;20031;-75
2023/09/10 05:07:27;;;;;;;17.38;14.70;;;21.10;87.10;;;;;;4940209;28;20100;-74
2023/09/10 05:09:54;;;;;;;17.63;14.35;;;21.10;87.30;;;;;;4935274;28;20036;-74
2023/09/10 05:12:20;;;;;;;16.00;14.32;;;21.10;87.40;;;;;;4941812;28;20050;-74
2023/09/10 05:14:45;;;;;;;17.02;15.23;;;21.10;87.40;;;;;;4943299;28;20035;-73
2023/09/10 05:17:11;;;;;;;17.65;14.30;;;21.10;87.40;;;;;;4944842;28;20088;-73
2023/09/10 05:19:37;;;;;;;15.15;13.50;;;21.10;87.30;;;;;;4949901;28;20023;-73
2023/09/10 05:22:02;;;;;;;18.77;14.25;;;21.10;87.40;;;;;;4940094;28;20545;-73
2023/09/10 05:24:28;;;;;;;17.60;14.63;;;21.10;87.20;;;;;;4939063;28;20066;-73
2023/09/10 05:26:54;;;;;;;17.20;14.43;;;21.10;87.00;;;;;;4942492;28;20185;-73
2023/09/10 05:29:19;;;;;;;18.08;13.82;;;21.10;86.90;;;;;;4934232;28;20493;-72
2023/09/10 05:31:45;;;;;;;16.35;14.30;;;21.20;86.90;;;;;;4945633;28;20627;-73
2023/09/10 05:34:11;;;;;;;19.58;13.88;;;21.20;86.90;;;;;;4933303;28;20035;-72
2023/09/10 05:36:36;;;;;;;17.23;13.20;;;21.20;86.80;;;;;;4939725;28;20420;-72
2023/09/10 05:39:02;;;;;;;18.00;13.48;;;21.30;86.70;;;;;;4937259;28;20067;-74
2023/09/10 05:41:28;;;;;;;15.50;12.25;;;21.30;86.50;;;;;;4940981;28;20538;-73
2023/09/10 05:43:54;;;;;;;16.02;12.68;;;21.40;86.50;;;;;;4940619;28;20120;-72
2023/09/10 05:46:19;;;;;;;13.55;10.50;;;21.40;86.40;;;;;;4942268;28;20035;-73
2023/09/10 05:48:45;;;;;;;14.88;11.10;;;21.50;86.30;;;;;;4942030;28;20163;-73
2023/09/10 05:51:11;;;;;;;18.25;12.07;;;21.60;86.10;;;;;;4938449;28;20031;-73
2023/09/10 05:53:37;;;;;;;16.00;11.73;;;21.70;85.70;;;;;;4942605;28;20039;-71
2023/09/10 05:56:04;;;;;;;18.60;12.70;;;21.70;85.50;;;;;;4937002;28;20032;-72
2023/09/10 05:58:29;;;;;;;15.18;10.68;;;21.80;85.20;;;;;;4939547;28;20229;-73
2023/09/10 06:00:55;;;;;;;14.05;11.00;;;21.90;85.00;;;;;;4942991;28;20525;-72
2023/09/10 06:03:21;;;;;;;13.30;10.60;;;22.00;84.90;;;;;;4940917;28;20669;-73
2023/09/10 06:05:48;;;;;;;15.55;10.57;;;22.00;84.50;;;;;;4943417;28;20031;-74
2023/09/10 06:08:13;;;;;;;11.77;9.70;;;22.10;84.30;;;;;;4943745;28;20065;-73
2023/09/10 06:10:39;;;;;;;13.93;9.85;;;22.10;84.10;;;;;;4937291;28;20164;-75
2023/09/10 06:13:05;;;;;;;16.60;10.60;;;22.20;83.90;;;;;;4937398;28;20031;-74
2023/09/10 06:15:30;;;;;;;14.70;10.23;;;22.30;83.60;;;;;;4934359;28;20031;-73
2023/09/10 06:17:56;;;;;;;13.98;10.05;;;22.40;83.40;;;;;;4941466;28;20549;-74
2023/09/10 06:20:22;;;;;;;17.33;12.10;;;22.40;83.30;;;;;;4948580;28;20027;-73
2023/09/10 06:22:47;;;;;;;14.23;10.45;;;22.50;83.00;;;;;;4935515;28;20045;-72
2023/09/10 06:25:13;;;;;;;12.38;9.45;;;22.60;83.00;;;;;;4942650;28;20036;-73
2023/09/10 06:27:39;;;;;;;12.55;10.43;;;22.60;82.90;;;;;;4946380;28;20047;-73
2023/09/10 06:30:05;;;;;;;13.40;9.57;;;22.60;82.70;;;;;;4943960;28;20401;-74
2023/09/10 06:32:31;;;;;;;14.90;10.38;;;22.70;82.70;;;;;;4941705;28;20541;-72
2023/09/10 06:34:56;;;;;;;14.15;10.65;;;22.80;82.60;;;;;;4940972;28;20106;-72
2023/09/10 06:37:22;;;;;;;14.80;10.02;;;22.90;82.60;;;;;;4942878;28;20039;-73
2023/09/10 06:39:48;;;;;;;20.75;12.70;;;23.00;82.60;;;;;;4941365;28;20081;-73
2023/09/10 06:42:13;;;;;;;19.30;12.38;;;23.00;82.50;;;;;;4941760;28;20129;-74
2023/09/10 06:44:42;;;;;;;13.20;10.77;;;23.10;82.30;;;;;;4941301;28;20090;-72
2023/09/10 06:47:09;;;;;;;13.50;11.50;;;23.20;82.30;;;;;;4942420;28;20417;-73
2023/09/10 06:49:35;;;;;;;14.45;11.80;;;23.30;82.10;;;;;;4942742;28;20071;-72
2023/09/10 06:52:00;;;;;;;15.27;11.82;;;23.40;81.80;;;;;;4937680;28;20054;-73
2023/09/10 06:54:26;;;;;;;19.25;13.63;;;23.50;81.40;;;;;;4953675;28;20374;-72
2023/09/10 06:56:52;;;;;;;17.90;15.00;;;23.60;80.90;;;;;;4940453;28;20563;-73
2023/09/10 06:59:17;;;;;;;17.25;13.60;;;23.60;80.50;;;;;;4938341;28;20251;-74
2023/09/10 07:01:44;;;;;;;17.30;13.07;;;23.70;80.60;;;;;;4939937;28;20027;-74
2023/09/10 07:04:20;;;;;;;20.48;13.35;;;23.80;80.30;;;;;;4941393;28;20466;-73
2023/09/10 07:06:47;;;;;;;16.25;11.80;;;24.00;80.10;;;;;;4938750;28;20019;-73
2023/09/10 07:09:17;;;;;;;20.00;12.32;;;24.10;79.60;;;;;;4978078;28;20027;-72
2023/09/10 07:11:43;;;;;;;17.38;12.05;;;24.10;78.70;;;;;;4939805;28;20030;-73
2023/09/10 07:14:08;;;;;;;19.60;12.50;;;24.20;79.00;;;;;;4935318;28;20023;-73
2023/09/10 07:16:34;;;;;;;16.88;11.98;;;24.30;78.60;;;;;;4941524;28;20038;-73
2023/09/10 07:19:01;;;;;;;15.23;10.88;;;24.40;78.50;;;;;;4954892;28;20035;-73
2023/09/10 07:21:27;;;;;;;16.27;10.80;;;24.50;78.30;;;;;;4939058;28;20102;-72
2023/09/10 07:23:53;;;;;;;16.67;10.40;;;24.60;77.80;;;;;;4979936;28;20043;-72
2023/09/10 07:26:18;;;;;;;13.93;9.50;;;24.80;77.70;;;;;;4942543;28;20028;-72
2023/09/10 07:28:44;;;;;;;13.82;9.82;;;24.90;76.40;;;;;;4955594;28;20058;-73
2023/09/10 07:31:10;;;;;;;14.00;9.63;;;25.00;76.40;;;;;;4951465;28;20023;-74
2023/09/10 07:33:36;;;;;;;17.23;10.38;;;25.10;75.70;;;;;;4958577;28;20081;-72
2023/09/10 07:36:01;;;;;;;15.00;9.05;;;25.20;75.10;;;;;;4943653;28;20073;-73
2023/09/10 07:38:27;;;;;;;13.43;8.90;;;25.30;75.50;;;;;;4957386;28;20497;-74
2023/09/10 07:40:53;;;;;;;14.93;8.90;;;25.60;75.10;;;;;;4943608;28;20039;-74
2023/09/10 07:43:18;;;;;;;15.05;7.85;;;25.70;74.10;;;;;;4952800;28;20634;-72
2023/09/10 07:45:45;;;;;;;13.27;8.10;;;25.80;73.20;;;;;;4939685;28;20118;-74
2023/09/10 07:48:12;;;;;;;15.27;8.38;;;26.10;72.60;;;;;;4949174;28;20038;-73
2023/09/10 07:50:37;;;;;;;11.43;7.78;;;26.10;71.70;;;;;;4943415;28;20035;-73
2023/09/10 07:53:03;;;;;;;11.07;7.65;;;26.30;71.00;;;;;;4938830;28;20047;-72
2023/09/10 07:55:29;;;;;;;16.55;8.02;;;26.50;70.00;;;;;;4943889;28;20023;-73
2023/09/10 07:57:54;;;;;;;12.30;7.80;;;26.60;69.30;;;;;;4941354;28;20035;-75
2023/09/10 08:00:20;;;;;;;15.60;7.82;;;26.70;69.80;;;;;;4943466;28;20026;-73
2023/09/10 08:02:48;;;;;;;12.70;6.82;;;26.80;68.70;;;;;;4941688;28;20078;-73
2023/09/10 08:05:13;;;;;;;11.63;7.35;;;27.00;68.70;;;;;;4935170;28;20024;-72
2023/09/10 08:07:39;;;;;;;13.05;7.88;;;27.10;68.70;;;;;;4947601;28;20054;-72
2023/09/10 08:10:05;;;;;;;13.50;7.25;;;27.20;68.50;;;;;;4945249;28;20027;-74
2023/09/10 08:12:31;;;;;;;11.73;7.15;;;27.50;67.90;;;;;;4943799;28;20055;-72
2023/09/10 08:14:56;;;;;;;12.40;6.80;;;27.60;67.00;;;;;;4936266;28;20509;-74
2023/09/10 08:17:22;;;;;;;10.45;6.60;;;27.70;66.00;;;;;;4947447;28;20389;-73
2023/09/10 08:19:48;;;;;;;13.40;7.15;;;27.90;65.80;;;;;;4961943;28;20705;-73
2023/09/10 08:22:14;;;;;;;13.05;7.32;;;28.10;65.00;;;;;;4943141;28;20039;-72
2023/09/10 08:24:39;;;;;;;12.10;6.68;;;28.20;64.30;;;;;;4947182;28;20058;-73
2023/09/10 08:27:05;;;;;;;14.73;6.75;;;28.20;63.80;;;;;;4959227;28;20490;-72
2023/09/10 08:29:30;;;;;;;13.27;6.95;;;28.40;63.60;;;;;;4939801;28;20023;-73
2023/09/10 08:31:58;;;;;;;11.65;6.70;;;28.60;63.20;;;;;;4946602;28;20078;-73
2023/09/10 08:34:24;;;;;;;13.20;6.95;;;28.60;62.10;;;;;;4942226;28;20034;-72
2023/09/10 08:36:50;;;;;;;15.95;6.65;;;28.70;60.90;;;;;;4943928;28;20023;-73
2023/09/10 08:39:16;;;;;;;12.35;7.07;;;28.70;61.30;;;;;;4951059;28;20015;-71
2023/09/10 08:42:09;;;;;;;12.38;6.80;;;28.80;61.90;;;;;;4957869;28;20097;-72
2023/09/10 08:44:37;;;;;;;12.57;7.10;;;29.00;61.80;;;;;;4943423;28;20046;-73
2023/09/10 08:47:05;;;;;;;12.13;6.90;;;29.10;60.30;;;;;;4944680;28;20055;-71
2023/09/10 08:49:34;;;;;;;13.88;6.30;;;29.20;59.10;;;;;;4939452;28;20031;-74
2023/09/10 08:52:00;;;;;;;10.88;6.10;;;29.20;59.50;;;;;;4943923;28;20059;-74
2023/09/10 08:54:26;;;;;;;13.38;6.60;;;29.50;59.80;;;;;;4938582;28;20074;-73
2023/09/10 08:56:53;;;;;;;11.63;7.05;;;29.60;58.70;;;;;;4949880;28;20042;-74
2023/09/10 08:59:21;;;;;;;14.02;6.53;;;29.60;58.40;;;;;;4945611;28;20473;-73
2023/09/10 09:01:47;;;;;;;13.73;6.30;;;29.70;57.60;;;;;;4947052;28;20458;-73
2023/09/10 09:04:12;;;;;;;10.52;5.93;;;29.80;57.60;;;;;;4943296;28;20043;-73
2023/09/10 09:06:40;;;;;;;15.35;6.50;;;29.80;57.40;;;;;;4938394;28;20125;-72
2023/09/10 09:09:07;;;;;;;13.35;6.63;;;30.00;57.70;;;;;;4944423;28;20027;-73
2023/09/10 09:11:37;;;;;;;14.25;6.72;;;30.10;57.10;;;;;;4935444;28;20023;-73
2023/09/10 09:14:07;;;;;;;12.85;6.70;;;30.30;57.50;;;;;;4943713;28;20026;-72
2023/09/10 09:16:34;;;;;;;15.27;7.13;;;30.40;57.20;;;;;;4946483;28;20035;-74
2023/09/10 09:19:05;;;;;;;11.90;6.05;;;30.50;56.60;;;;;;4958521;28;20039;-73
2023/09/10 09:21:31;;;;;;;14.20;6.78;;;30.50;56.20;;;;;;4935882;28;20027;-72
2023/09/10 09:24:01;;;;;;;11.45;6.03;;;30.50;56.50;;;;;;4941276;28;20039;-73
2023/09/10 09:26:28;;;;;;;12.10;6.25;;;30.60;56.80;;;;;;4942733;28;20039;-72
2023/09/10 09:28:57;;;;;;;11.63;6.55;;;30.80;56.00;;;;;;4943700;28;20115;-74
2023/09/10 09:31:24;;;;;;;14.32;6.10;;;31.00;55.60;;;;;;4952976;28;20019;-71
2023/09/10 09:33:51;;;;;;;12.20;6.85;;;31.00;55.30;;;;;;4939764;28;20042;-71
2023/09/10 09:36:17;;;;;;;15.27;7.05;;;31.00;55.40;;;;;;4941230;28;20034;-73
2023/09/10 09:38:44;;;;;;;13.63;6.03;;;31.00;55.40;;;;;;4980762;28;20039;-72
2023/09/10 09:41:10;;;;;;;15.38;6.55;;;31.20;55.90;;;;;;4940373;28;20037;-72
2023/09/10 09:43:36;;;;;;;13.90;6.93;;;31.20;54.80;;;;;;4941562;28;20027;-72
2023/09/10 09:46:03;;;;;;;13.75;6.53;;;31.20;55.00;;;;;;4941654;28;20043;-73
2023/09/10 09:48:30;;;;;;;15.45;6.40;;;31.30;54.60;;;;;;4936526;28;20039;-73
2023/09/10 09:50:58;;;;;;;15.02;6.15;;;31.40;54.80;;;;;;4935898;28;20468;-73
2023/09/10 09:53:28;;;;;;;12.75;5.97;;;31.50;53.30;;;;;;4936272;28;20057;-73
2023/09/10 09:55:59;;;;;;;16.02;6.78;;;31.50;53.30;;;;;;4940388;28;20162;-72
2023/09/10 09:58:25;;;;;;;13.60;6.45;;;31.50;52.60;;;;;;4950624;28;20042;-73
2023/09/10 10:00:51;;;;;;;14.48;6.10;;;31.50;52.80;;;;;;4942997;28;20023;-72
2023/09/10 10:03:20;;;;;;;14.13;6.18;;;31.70;53.40;;;;;;4943215;28;20046;-73
2023/09/10 10:05:53;;;;;;;11.65;6.18;;;31.90;52.80;;;;;;4938636;28;20043;-74
2023/09/10 10:08:24;;;;;;;11.33;6.10;;;31.90;52.80;;;;;;4934545;28;20032;-72
2023/09/10 10:10:50;;;;;;;11.95;6.40;;;31.80;52.80;;;;;;4941584;28;20019;-72
2023/09/10 10:13:22;;;;;;;11.43;5.70;;;31.90;53.40;;;;;;4936457;28;20031;-74
2023/09/10 10:15:52;;;;;;;13.25;6.40;;;32.00;53.60;;;;;;4942855;28;20035;-74
2023/09/10 10:18:20;;;;;;;13.50;6.35;;;32.10;52.50;;;;;;4941144;28;20051;-73
2023/09/10 10:20:47;;;;;;;16.77;6.55;;;32.20;53.20;;;;;;4938606;28;20042;-73
2023/09/10 10:23:14;;;;;;;12.35;6.20;;;32.30;52.00;;;;;;4939286;28;20053;-73
2023/09/10 10:25:41;;;;;;;14.45;6.13;;;32.40;52.00;;;;;;4954498;28;20027;-73
2023/09/10 10:28:09;;;;;;;13.55;5.93;;;32.50;52.10;;;;;;4938521;28;20073;-75
2023/09/10 10:30:43;;;;;;;11.60;5.93;;;32.50;52.30;;;;;;4947289;28;20023;-73
2023/09/10 10:33:12;;;;;;;12.18;6.32;;;32.50;52.40;;;;;;4933948;28;20154;-73
2023/09/10 10:35:44;;;;;;;13.73;6.47;;;32.60;52.40;;;;;;4959607;28;20021;-72
2023/09/10 10:38:16;;;;;;;12.57;6.03;;;32.60;50.60;;;;;;4935622;28;20039;-73
2023/09/10 10:40:43;;;;;;;10.73;5.85;;;32.70;51.40;;;;;;4938170;28;20020;-72
2023/09/10 10:43:29;;;;;;;12.68;5.88;;;32.80;51.00;;;;;;4936800;28;20130;-72
2023/09/10 10:45:57;;;;;;;12.00;6.38;;;32.90;50.80;;;;;;4938069;28;20129;-72
2023/09/10 10:48:30;;;;;;;13.15;6.20;;;33.00;49.70;;;;;;4962096;28;20050;-73
2023/09/10 10:50:58;;;;;;;12.98;6.25;;;33.10;50.40;;;;;;4937708;28;20085;-73
2023/09/10 10:53:24;;;;;;;14.70;6.18;;;33.10;48.80;;;;;;4940239;28;20163;-73
2023/09/10 10:55:53;;;;;;;14.27;5.90;;;33.00;49.60;;;;;;4957019;28;20035;-72
2023/09/10 10:58:23;;;;;;;13.35;5.95;;;33.10;49.10;;;;;;4937254;28;20040;-73
2023/09/10 11:00:51;;;;;;;11.52;6.45;;;33.30;50.10;;;;;;4939931;28;20142;-72
2023/09/10 11:03:19;;;;;;;11.98;6.05;;;33.30;49.60;;;;;;4936096;28;20027;-72
2023/09/10 11:05:54;;;;;;;13.43;6.63;;;33.30;49.70;;;;;;4953353;28;20104;-73
2023/09/10 11:08:27;;;;;;;12.75;6.82;;;33.50;49.80;;;;;;4943008;28;20444;-73
2023/09/10 11:10:53;;;;;;;15.07;6.47;;;33.60;49.60;;;;;;4975805;28;20019;-74
2023/09/10 11:13:19;;;;;;;11.65;6.70;;;33.60;50.10;;;;;;4952273;28;20070;-75
2023/09/10 11:16:03;;;;;;;13.13;5.88;;;33.60;49.90;;;;;;4954705;28;20054;-76
2023/09/10 11:18:35;;;;;;;21.40;6.72;;;33.70;50.30;;;;;;4946330;28;20515;-75
2023/09/10 11:21:14;;;;;;;11.63;6.70;;;33.70;50.10;;;;;;4934655;28;20154;-77
2023/09/10 11:24:06;;;;;;;11.88;6.07;;;33.60;50.30;;;;;;4949170;28;20498;-78
2023/09/10 11:26:32;;;;;;;11.45;6.10;;;33.60;49.80;;;;;;4943095;28;20036;-75
2023/09/10 11:29:03;;;;;;;11.95;6.03;;;33.60;49.70;;;;;;4934286;28;20682;-76
2023/09/10 11:31:40;;;;;;;14.15;6.38;;;33.50;49.90;;;;;;4948843;28;20894;-76
2023/09/10 11:34:34;;;;;;;10.80;5.93;;;33.70;50.20;;;;;;4931378;28;20127;-76
2023/09/10 11:37:02;;;;;;;15.32;6.45;;;33.80;48.80;;;;;;4934214;28;20048;-75
2023/09/10 11:39:30;;;;;;;14.18;7.20;;;34.00;48.40;;;;;;4943325;28;20024;-75
2023/09/10 11:41:58;;;;;;;13.93;6.78;;;34.00;48.80;;;;;;4927863;28;20046;-75
2023/09/10 11:44:24;;;;;;;11.02;6.07;;;34.00;48.60;;;;;;4934659;28;20486;-76
2023/09/10 11:46:53;;;;;;;15.40;7.07;;;33.90;48.30;;;;;;4940173;28;20031;-77
2023/09/10 11:49:21;;;;;;;15.38;10.25;;;33.90;48.50;;;;;;4954317;28;20024;-75
2023/09/10 11:51:48;;;;;;;12.30;6.18;;;34.00;47.80;;;;;;4939921;28;20027;-75
2023/09/10 11:54:19;;;;;;;11.93;6.47;;;33.90;49.40;;;;;;4956202;28;20031;-76
2023/09/10 11:56:55;;;;;;;11.88;6.07;;;33.90;47.90;;;;;;4940070;28;20031;-77
2023/09/10 11:59:26;;;;;;;16.52;6.10;;;34.00;47.50;;;;;;4939416;28;20525;-75
2023/09/10 12:01:56;;;;;;;14.75;6.43;;;34.00;47.00;;;;;;4950271;28;20107;-73
2023/09/10 12:04:33;;;;;;;12.70;6.20;;;34.10;47.30;;;;;;4950705;28;20103;-74
2023/09/10 12:07:00;;;;;;;11.65;5.45;;;34.10;47.20;;;;;;4965332;28;20461;-74
2023/09/10 12:09:30;;;;;;;13.38;7.05;;;34.00;46.90;;;;;;4948493;28;20031;-75
2023/09/10 12:11:57;;;;;;;10.27;5.60;;;33.60;47.30;;;;;;4966034;28;20130;-76
2023/09/10 12:14:23;;;;;;;12.23;5.60;;;34.00;48.40;;;;;;4941306;28;20063;-75
2023/09/10 12:16:49;;;;;;;12.13;5.97;;;34.00;47.90;;;;;;4985711;28;20077;-77
2023/09/10 12:19:16;;;;;;;13.45;5.85;;;34.20;46.50;;;;;;4984483;28;20027;-75
2023/09/10 12:21:42;;;;;;;17.15;6.22;;;34.00;45.90;;;;;;4943403;28;20031;-75
2023/09/10 12:24:09;;;;;;;11.27;5.45;;;33.90;45.50;;;;;;4955740;28;20028;-76
2023/09/10 12:26:35;;;;;;;14.13;5.78;;;34.10;45.80;;;;;;4952513;28;20093;-76
2023/09/10 12:29:00;;;;;;;16.23;5.65;;;34.20;45.50;;;;;;4957491;28;20048;-75
2023/09/10 12:31:26;;;;;;;13.02;5.85;;;34.00;45.40;;;;;;4946492;28;20023;-75